DAL1926 KMSP-MRLB
Flight info
| Callsign | DAL1926 |
|---|---|
| Flight time | N/A |
| Altitude | 26000 |
| Route | RST1 ALO J233 CNOTA/N0473F320 DCT IRK/N0471F330 DCT ARG DCT UJM DCT MCB/N0469F350 J35 LEV A770 KEHLI DCT TUGET UB753 TNT/N0471F360 UA502 LIBIS/N0470F370 UA502 MGA DCT OVADO OVADO1S |
| Aircraft | B739/M-SDE2E3FGHIRWXY/LB1 |
Departure
| Time | N/A |
|---|---|
| Airport | Minneapolis–Saint Paul International Airport / Wold–Chamberlain Field (KMSP) |
Arrival
| Time | 2026-04-12 20:48 |
|---|---|
| Airport | Daniel Oduber Quirós International Airport (MRLB) |
| Time | Latitude | Longitude | Altitude | Speed | Heading |
|---|---|---|---|---|---|
| 2026-04-12 19:52 | 26.41817 | -89.94666 | 33196 ft | 466 kts | 180° |
| 2026-04-12 19:53 | 26.35337 | -89.94297 | 33193 ft | 466 kts | 180° |
| 2026-04-12 19:53 | 26.28856 | -89.93932 | 33193 ft | 466 kts | 180° |
| 2026-04-12 19:54 | 26.22373 | -89.93571 | 33177 ft | 466 kts | 180° |
| 2026-04-12 19:54 | 26.15896 | -89.93210 | 33186 ft | 466 kts | 180° |
| 2026-04-12 19:55 | 26.09409 | -89.92849 | 33186 ft | 466 kts | 180° |
| 2026-04-12 19:55 | 26.02924 | -89.92487 | 33185 ft | 467 kts | 180° |
| 2026-04-12 19:56 | 25.96426 | -89.92126 | 33185 ft | 467 kts | 180° |
| 2026-04-12 19:56 | 25.89970 | -89.91767 | 33182 ft | 467 kts | 180° |
| 2026-04-12 19:57 | 25.83471 | -89.91406 | 33183 ft | 468 kts | 180° |
| 2026-04-12 19:57 | 25.76964 | -89.91045 | 33184 ft | 469 kts | 180° |
| 2026-04-12 19:58 | 25.70435 | -89.90683 | 33182 ft | 470 kts | 180° |
| 2026-04-12 19:58 | 25.63896 | -89.90321 | 33167 ft | 470 kts | 181° |
| 2026-04-12 19:59 | 25.57356 | -89.89959 | 33178 ft | 470 kts | 181° |
| 2026-04-12 19:59 | 25.50813 | -89.89598 | 33176 ft | 471 kts | 181° |
| 2026-04-12 20:00 | 25.44261 | -89.89236 | 33175 ft | 471 kts | 181° |
| 2026-04-12 20:00 | 25.37756 | -89.88877 | 33174 ft | 471 kts | 181° |
| 2026-04-12 20:01 | 25.31192 | -89.88516 | 33166 ft | 471 kts | 181° |
| 2026-04-12 20:01 | 25.24637 | -89.88155 | 33174 ft | 471 kts | 181° |
| 2026-04-12 20:02 | 25.18081 | -89.87795 | 33170 ft | 472 kts | 181° |
| 2026-04-12 20:02 | 25.11523 | -89.87435 | 33169 ft | 472 kts | 181° |
| 2026-04-12 20:03 | 25.04997 | -89.87077 | 33169 ft | 471 kts | 181° |
| 2026-04-12 20:03 | 24.98439 | -89.86718 | 33158 ft | 471 kts | 181° |
| 2026-04-12 20:04 | 24.91888 | -89.86360 | 33169 ft | 471 kts | 181° |
| 2026-04-12 20:04 | 24.85339 | -89.86002 | 33165 ft | 471 kts | 181° |
| 2026-04-12 20:05 | 24.78784 | -89.85644 | 33167 ft | 471 kts | 181° |
| 2026-04-12 20:05 | 24.72226 | -89.85286 | 33163 ft | 471 kts | 181° |
| 2026-04-12 20:06 | 24.65720 | -89.84932 | 33160 ft | 471 kts | 181° |
| 2026-04-12 20:06 | 24.59173 | -89.84575 | 33156 ft | 471 kts | 181° |
| 2026-04-12 20:07 | 24.52618 | -89.84219 | 33158 ft | 471 kts | 181° |
| 2026-04-12 20:07 | 24.46070 | -89.83644 | 33154 ft | 475 kts | 174° |
| 2026-04-12 20:08 | 24.39567 | -89.82317 | 33149 ft | 476 kts | 172° |
| 2026-04-12 20:08 | 24.33070 | -89.80889 | 33152 ft | 476 kts | 173° |
| 2026-04-12 20:09 | 23.97924 | -89.73620 | 33126 ft | 478 kts | 174° |
| 2026-04-12 20:09 | 23.45438 | -89.63079 | 33133 ft | 480 kts | 174° |
| 2026-04-12 20:10 | 22.92829 | -89.52534 | 33128 ft | 480 kts | 174° |
| 2026-04-12 20:10 | 22.40531 | -89.42139 | 33095 ft | 481 kts | 174° |
| 2026-04-12 20:11 | 21.87865 | -89.31735 | 33109 ft | 481 kts | 174° |
| 2026-04-12 20:11 | 21.35068 | -89.21399 | 33085 ft | 482 kts | 173° |
| 2026-04-12 20:12 | 20.82264 | -89.11139 | 33087 ft | 482 kts | 173° |
| 2026-04-12 20:12 | 20.29394 | -89.00922 | 33064 ft | 482 kts | 173° |
| 2026-04-12 20:13 | 19.76614 | -88.90799 | 33055 ft | 482 kts | 173° |
| 2026-04-12 20:14 | 18.97792 | -88.75814 | 33052 ft | 481 kts | 174° |
| 2026-04-12 20:14 | 18.45110 | -88.65878 | 33077 ft | 480 kts | 174° |
| 2026-04-12 20:14 | 18.19278 | -88.57527 | 33071 ft | 497 kts | 155° |
| 2026-04-12 20:15 | 17.94509 | -88.46729 | 33027 ft | 467 kts | 175° |
| 2026-04-12 20:15 | 17.69265 | -88.38526 | 33182 ft | 489 kts | 158° |
| 2026-04-12 20:15 | 17.44398 | -88.27587 | 32994 ft | 473 kts | 174° |
| 2026-04-12 20:15 | 17.18512 | -88.25169 | 33137 ft | 477 kts | 175° |
| 2026-04-12 20:16 | 16.92220 | -88.19079 | 33084 ft | 484 kts | 173° |
| 2026-04-12 20:16 | 16.39165 | -88.09373 | 33051 ft | 484 kts | 174° |
| 2026-04-12 20:17 | 15.86093 | -87.99259 | 33039 ft | 485 kts | 174° |
| 2026-04-12 20:17 | 15.33251 | -87.87920 | 32951 ft | 498 kts | 161° |
| 2026-04-12 20:18 | 14.84683 | -87.61796 | 33076 ft | 481 kts | 163° |
| 2026-04-12 20:18 | 14.35652 | -87.38363 | 33110 ft | 483 kts | 160° |
| 2026-04-12 20:19 | 13.85984 | -87.20888 | 32896 ft | 453 kts | 199° |
| 2026-04-12 20:19 | 13.62215 | -87.29087 | 33042 ft | 477 kts | 187° |
| 2026-04-12 20:19 | 13.38382 | -87.16570 | 33206 ft | 507 kts | 133° |
| 2026-04-12 20:19 | 13.21502 | -86.94704 | 32598 ft | 498 kts | 145° |
| 2026-04-12 20:20 | 13.02967 | -86.84480 | 32982 ft | 481 kts | 152° |
| 2026-04-12 20:20 | 13.00311 | -86.82317 | 32897 ft | 490 kts | 133° |
| 2026-04-12 20:20 | 12.97993 | -86.79684 | 32887 ft | 492 kts | 138° |
| 2026-04-12 20:21 | 12.92687 | -86.75328 | 32899 ft | 492 kts | 147° |
| 2026-04-12 20:21 | 12.87074 | -86.71291 | 32875 ft | 493 kts | 147° |
| 2026-04-12 20:22 | 12.81455 | -86.67239 | 32876 ft | 494 kts | 147° |
| 2026-04-12 20:22 | 12.75869 | -86.63129 | 32901 ft | 494 kts | 146° |
| 2026-04-12 20:23 | 12.70310 | -86.59006 | 32883 ft | 493 kts | 146° |
| 2026-04-12 20:23 | 12.64756 | -86.54885 | 32884 ft | 492 kts | 146° |
| 2026-04-12 20:24 | 12.59245 | -86.50806 | 32864 ft | 492 kts | 147° |
| 2026-04-12 20:24 | 12.53697 | -86.46702 | 32888 ft | 491 kts | 146° |
| 2026-04-12 20:25 | 12.48154 | -86.42606 | 32881 ft | 491 kts | 147° |
| 2026-04-12 20:25 | 12.42619 | -86.38516 | 32880 ft | 490 kts | 147° |
| 2026-04-12 20:26 | 12.37085 | -86.34429 | 32856 ft | 490 kts | 147° |
| 2026-04-12 20:26 | 12.31562 | -86.30351 | 32886 ft | 490 kts | 146° |
| 2026-04-12 20:27 | 12.26958 | -86.26955 | 32879 ft | 490 kts | 147° |
| 2026-04-12 20:27 | 12.20520 | -86.22207 | 32878 ft | 491 kts | 146° |
| 2026-04-12 20:28 | 12.15875 | -86.18788 | 32863 ft | 491 kts | 148° |
| 2026-04-12 20:28 | 12.09926 | -86.15574 | 32880 ft | 485 kts | 161° |
| 2026-04-12 20:29 | 12.03624 | -86.13092 | 32870 ft | 485 kts | 162° |
| 2026-04-12 20:29 | 11.97335 | -86.10604 | 32871 ft | 484 kts | 160° |
| 2026-04-12 20:30 | 11.91061 | -86.08066 | 32873 ft | 485 kts | 160° |
| 2026-04-12 20:30 | 11.87889 | -86.06776 | 32085 ft | 495 kts | 160° |
| 2026-04-12 20:30 | 11.84693 | -86.05474 | 31333 ft | 494 kts | 160° |
| 2026-04-12 20:30 | 11.81489 | -86.04168 | 30404 ft | 497 kts | 160° |
| 2026-04-12 20:31 | 11.78268 | -86.02856 | 29356 ft | 500 kts | 160° |
| 2026-04-12 20:31 | 11.75027 | -86.01537 | 28289 ft | 502 kts | 160° |
| 2026-04-12 20:31 | 11.71816 | -86.00231 | 27248 ft | 503 kts | 160° |
| 2026-04-12 20:31 | 11.68563 | -85.98910 | 26160 ft | 505 kts | 159° |
| 2026-04-12 20:32 | 11.65305 | -85.97587 | 25358 ft | 500 kts | 159° |
| 2026-04-12 20:32 | 11.62089 | -85.96280 | 24515 ft | 496 kts | 158° |
| 2026-04-12 20:32 | 11.58916 | -85.94990 | 23825 ft | 488 kts | 158° |
| 2026-04-12 20:32 | 11.55760 | -85.93708 | 23040 ft | 484 kts | 158° |
| 2026-04-12 20:33 | 11.52657 | -85.92449 | 22113 ft | 479 kts | 158° |
| 2026-04-12 20:33 | 11.49573 | -85.91199 | 21452 ft | 471 kts | 158° |
| 2026-04-12 20:33 | 11.46545 | -85.89976 | 20537 ft | 469 kts | 158° |
| 2026-04-12 20:33 | 11.43574 | -85.88777 | 19966 ft | 459 kts | 158° |
| 2026-04-12 20:34 | 11.40594 | -85.87575 | 19063 ft | 460 kts | 158° |
| 2026-04-12 20:34 | 11.37650 | -85.86387 | 18356 ft | 453 kts | 158° |
| 2026-04-12 20:34 | 11.34716 | -85.85203 | 17689 ft | 448 kts | 158° |
| 2026-04-12 20:34 | 11.31840 | -85.84042 | 16793 ft | 446 kts | 158° |
| 2026-04-12 20:35 | 11.28986 | -85.82890 | 16323 ft | 434 kts | 158° |
| 2026-04-12 20:35 | 11.26168 | -85.81753 | 15350 ft | 437 kts | 158° |
| 2026-04-12 20:35 | 11.23377 | -85.80627 | 14883 ft | 425 kts | 157° |
| 2026-04-12 20:35 | 11.20556 | -85.79667 | 13969 ft | 429 kts | 169° |
| 2026-04-12 20:36 | 11.17620 | -85.79562 | 13547 ft | 418 kts | 181° |
| 2026-04-12 20:36 | 11.14737 | -85.79636 | 13065 ft | 410 kts | 179° |
| 2026-04-12 20:36 | 11.11918 | -85.79650 | 12682 ft | 401 kts | 179° |
| 2026-04-12 20:36 | 11.09147 | -85.79641 | 12306 ft | 395 kts | 179° |
| 2026-04-12 20:37 | 11.06457 | -85.79629 | 11952 ft | 386 kts | 178° |
| 2026-04-12 20:37 | 11.03803 | -85.79614 | 11601 ft | 376 kts | 177° |
| 2026-04-12 20:37 | 11.01214 | -85.79557 | 11264 ft | 367 kts | 176° |
| 2026-04-12 20:37 | 10.98688 | -85.79482 | 10948 ft | 359 kts | 175° |
| 2026-04-12 20:38 | 10.96220 | -85.79407 | 10607 ft | 351 kts | 176° |
| 2026-04-12 20:38 | 10.93802 | -85.79336 | 10299 ft | 344 kts | 175° |
| 2026-04-12 20:38 | 10.91496 | -85.79272 | 9997 ft | 337 kts | 175° |
| 2026-04-12 20:38 | 10.89176 | -85.79209 | 9791 ft | 328 kts | 176° |
| 2026-04-12 20:39 | 10.86950 | -85.79151 | 9796 ft | 312 kts | 175° |
| 2026-04-12 20:39 | 10.84818 | -85.79098 | 9740 ft | 300 kts | 175° |
| 2026-04-12 20:39 | 10.82779 | -85.79043 | 9670 ft | 288 kts | 174° |
| 2026-04-12 20:39 | 10.80814 | -85.78990 | 9522 ft | 276 kts | 176° |
| 2026-04-12 20:40 | 10.78894 | -85.78939 | 9006 ft | 275 kts | 174° |
| 2026-04-12 20:40 | 10.76985 | -85.78886 | 8535 ft | 273 kts | 175° |
| 2026-04-12 20:40 | 10.75086 | -85.78835 | 8048 ft | 273 kts | 173° |
| 2026-04-12 20:40 | 10.73207 | -85.78785 | 7630 ft | 269 kts | 174° |
| 2026-04-12 20:41 | 10.71385 | -85.78737 | 7388 ft | 262 kts | 171° |
| 2026-04-12 20:41 | 10.69549 | -85.78688 | 7204 ft | 259 kts | 174° |
| 2026-04-12 20:41 | 10.67735 | -85.78639 | 6979 ft | 261 kts | 173° |
| 2026-04-12 20:41 | 10.65948 | -85.78613 | 6730 ft | 259 kts | 175° |
| 2026-04-12 20:42 | 10.64146 | -85.78603 | 6460 ft | 257 kts | 175° |
| 2026-04-12 20:42 | 10.62359 | -85.78593 | 6193 ft | 256 kts | 173° |
| 2026-04-12 20:42 | 10.60582 | -85.78583 | 5919 ft | 253 kts | 171° |
| 2026-04-12 20:42 | 10.58848 | -85.78573 | 5668 ft | 246 kts | 171° |
| 2026-04-12 20:43 | 10.57194 | -85.78410 | 5339 ft | 231 kts | 154° |
| 2026-04-12 20:43 | 10.55724 | -85.77849 | 4882 ft | 229 kts | 152° |
| 2026-04-12 20:43 | 10.54214 | -85.77244 | 4338 ft | 229 kts | 145° |
| 2026-04-12 20:43 | 10.53114 | -85.76252 | 4246 ft | 203 kts | 116° |
| 2026-04-12 20:44 | 10.52605 | -85.74967 | 4100 ft | 192 kts | 96° |
| 2026-04-12 20:44 | 10.52721 | -85.73669 | 3888 ft | 186 kts | 75° |
| 2026-04-12 20:44 | 10.53043 | -85.72389 | 3668 ft | 189 kts | 75° |
| 2026-04-12 20:44 | 10.53423 | -85.71092 | 3379 ft | 193 kts | 71° |
| 2026-04-12 20:45 | 10.53852 | -85.69807 | 3155 ft | 192 kts | 70° |
| 2026-04-12 20:45 | 10.54296 | -85.68545 | 2886 ft | 186 kts | 70° |
| 2026-04-12 20:45 | 10.54722 | -85.67353 | 2679 ft | 173 kts | 70° |
| 2026-04-12 20:45 | 10.55125 | -85.66219 | 2446 ft | 169 kts | 70° |
| 2026-04-12 20:46 | 10.55525 | -85.65096 | 2257 ft | 167 kts | 70° |
| 2026-04-12 20:46 | 10.55928 | -85.63973 | 2019 ft | 171 kts | 69° |
| 2026-04-12 20:46 | 10.56341 | -85.62826 | 1803 ft | 174 kts | 70° |
| 2026-04-12 20:46 | 10.56752 | -85.61675 | 1534 ft | 170 kts | 68° |
| 2026-04-12 20:47 | 10.57144 | -85.60579 | 1332 ft | 160 kts | 68° |
| 2026-04-12 20:47 | 10.57509 | -85.59558 | 1153 ft | 155 kts | 69° |
| 2026-04-12 20:47 | 10.57905 | -85.58455 | 908 ft | 181 kts | 69° |
| 2026-04-12 20:47 | 10.58347 | -85.57220 | 689 ft | 179 kts | 69° |
| 2026-04-12 20:48 | 10.58752 | -85.56098 | 430 ft | 154 kts | 70° |
| 2026-04-12 20:48 | 10.59079 | -85.55156 | 266 ft | 129 kts | 68° |
| 2026-04-12 20:48 | 10.59348 | -85.54418 | 262 ft | 85 kts | 69° |
| 2026-04-12 20:48 | 10.59481 | -85.54049 | 267 ft | 26 kts | 71° |
| 2026-04-12 20:49 | 10.59525 | -85.53928 | 268 ft | 17 kts | 69° |
| 2026-04-12 20:49 | 10.59589 | -85.53832 | 270 ft | 17 kts | 16° |
| 2026-04-12 20:49 | 10.59699 | -85.53859 | 269 ft | 16 kts | 340° |
| 2026-04-12 20:49 | 10.59776 | -85.53858 | 269 ft | 10 kts | 56° |
| 2026-04-12 20:50 | 10.59803 | -85.53790 | 270 ft | 10 kts | 69° |
| 2026-04-12 20:50 | 10.59827 | -85.53726 | 271 ft | 10 kts | 69° |
| 2026-04-12 20:50 | 10.59854 | -85.53664 | 272 ft | 9 kts | 63° |
| 2026-04-12 20:50 | 10.59884 | -85.53606 | 272 ft | 9 kts | 62° |
| 2026-04-12 20:51 | 10.59911 | -85.53598 | 272 ft | 2 kts | 319° |
| 2026-04-12 20:51 | 10.59926 | -85.53606 | 272 ft | 4 kts | 334° |
| 2026-04-12 20:51 | 10.59953 | -85.53617 | 272 ft | 4 kts | 340° |
| 2026-04-12 20:51 | 10.59956 | -85.53618 | 272 ft | 0 kts | 340° |